sensor_id;sensor_type;location;lat;lon;timestamp;P1;durP1;ratioP1;P2;durP2;ratioP2
4961;SDS011;2496;52.468;13.342;2023-02-02T00:01:14;11.10;;;3.77;;
4961;SDS011;2496;52.468;13.342;2023-02-02T00:03:43;12.77;;;2.90;;
4961;SDS011;2496;52.468;13.342;2023-02-02T00:06:10;14.33;;;3.13;;
4961;SDS011;2496;52.468;13.342;2023-02-02T00:08:38;15.77;;;5.13;;
4961;SDS011;2496;52.468;13.342;2023-02-02T00:11:06;17.03;;;2.97;;
4961;SDS011;2496;52.468;13.342;2023-02-02T00:13:33;16.73;;;3.67;;
4961;SDS011;2496;52.468;13.342;2023-02-02T00:19:03;17.83;;;4.07;;
4961;SDS011;2496;52.468;13.342;2023-02-02T00:21:31;21.60;;;3.60;;
4961;SDS011;2496;52.468;13.342;2023-02-02T00:23:58;23.17;;;3.30;;
4961;SDS011;2496;52.468;13.342;2023-02-02T00:26:25;9.30;;;2.53;;
4961;SDS011;2496;52.468;13.342;2023-02-02T00:28:53;20.10;;;4.00;;
4961;SDS011;2496;52.468;13.342;2023-02-02T00:31:20;16.03;;;2.83;;
4961;SDS011;2496;52.468;13.342;2023-02-02T00:33:48;12.87;;;3.80;;
4961;SDS011;2496;52.468;13.342;2023-02-02T00:36:17;21.63;;;3.90;;
4961;SDS011;2496;52.468;13.342;2023-02-02T00:38:45;12.70;;;3.27;;
4961;SDS011;2496;52.468;13.342;2023-02-02T00:41:13;17.47;;;3.07;;
4961;SDS011;2496;52.468;13.342;2023-02-02T00:43:40;16.07;;;2.90;;
4961;SDS011;2496;52.468;13.342;2023-02-02T00:46:08;15.43;;;3.90;;
4961;SDS011;2496;52.468;13.342;2023-02-02T00:48:38;10.67;;;2.80;;
4961;SDS011;2496;52.468;13.342;2023-02-02T00:51:05;24.30;;;3.73;;
4961;SDS011;2496;52.468;13.342;2023-02-02T00:53:34;16.23;;;3.30;;
4961;SDS011;2496;52.468;13.342;2023-02-02T00:56:01;23.60;;;4.17;;
4961;SDS011;2496;52.468;13.342;2023-02-02T00:58:28;19.40;;;2.63;;
4961;SDS011;2496;52.468;13.342;2023-02-02T01:00:55;19.93;;;3.13;;
4961;SDS011;2496;52.468;13.342;2023-02-02T01:03:22;21.77;;;3.50;;
4961;SDS011;2496;52.468;13.342;2023-02-02T01:05:49;14.43;;;2.93;;
4961;SDS011;2496;52.468;13.342;2023-02-02T01:08:16;15.63;;;2.87;;
4961;SDS011;2496;52.468;13.342;2023-02-02T01:10:45;16.50;;;3.20;;
4961;SDS011;2496;52.468;13.342;2023-02-02T01:13:12;12.03;;;2.47;;
4961;SDS011;2496;52.468;13.342;2023-02-02T01:15:39;9.87;;;3.30;;
4961;SDS011;2496;52.468;13.342;2023-02-02T01:18:07;14.20;;;3.40;;
4961;SDS011;2496;52.468;13.342;2023-02-02T01:20:34;18.67;;;3.20;;
4961;SDS011;2496;52.468;13.342;2023-02-02T01:23:02;11.67;;;2.23;;
4961;SDS011;2496;52.468;13.342;2023-02-02T01:25:29;14.90;;;3.10;;
4961;SDS011;2496;52.468;13.342;2023-02-02T01:28:00;28.63;;;4.13;;
4961;SDS011;2496;52.468;13.342;2023-02-02T01:30:27;16.67;;;4.30;;
4961;SDS011;2496;52.468;13.342;2023-02-02T01:32:54;20.27;;;3.10;;
4961;SDS011;2496;52.468;13.342;2023-02-02T01:35:21;13.83;;;3.03;;
4961;SDS011;2496;52.468;13.342;2023-02-02T01:37:49;14.53;;;3.80;;
4961;SDS011;2496;52.468;13.342;2023-02-02T01:40:16;15.43;;;2.80;;
4961;SDS011;2496;52.468;13.342;2023-02-02T01:42:43;13.00;;;3.10;;
4961;SDS011;2496;52.468;13.342;2023-02-02T01:45:18;7.60;;;2.23;;
4961;SDS011;2496;52.468;13.342;2023-02-02T01:47:49;17.20;;;2.80;;
4961;SDS011;2496;52.468;13.342;2023-02-02T01:50:20;19.07;;;3.17;;
4961;SDS011;2496;52.468;13.342;2023-02-02T01:52:50;10.80;;;2.53;;
4961;SDS011;2496;52.468;13.342;2023-02-02T01:55:21;13.13;;;2.80;;
4961;SDS011;2496;52.468;13.342;2023-02-02T01:57:53;8.90;;;2.50;;
4961;SDS011;2496;52.468;13.342;2023-02-02T02:00:24;13.57;;;3.47;;
4961;SDS011;2496;52.468;13.342;2023-02-02T02:02:52;19.80;;;2.83;;
4961;SDS011;2496;52.468;13.342;2023-02-02T02:05:23;15.10;;;2.93;;
4961;SDS011;2496;52.468;13.342;2023-02-02T02:07:55;11.93;;;2.50;;
4961;SDS011;2496;52.468;13.342;2023-02-02T02:10:35;11.30;;;2.40;;
4961;SDS011;2496;52.468;13.342;2023-02-02T02:13:02;16.97;;;3.00;;
4961;SDS011;2496;52.468;13.342;2023-02-02T02:15:33;10.87;;;2.50;;
4961;SDS011;2496;52.468;13.342;2023-02-02T02:18:26;27.23;;;3.30;;
4961;SDS011;2496;52.468;13.342;2023-02-02T02:21:16;18.80;;;2.93;;
4961;SDS011;2496;52.468;13.342;2023-02-02T02:27:42;10.53;;;3.00;;
4961;SDS011;2496;52.468;13.342;2023-02-02T02:30:34;16.47;;;5.40;;
4961;SDS011;2496;52.468;13.342;2023-02-02T02:33:18;17.77;;;2.60;;
4961;SDS011;2496;52.468;13.342;2023-02-02T02:35:52;19.07;;;3.27;;
4961;SDS011;2496;52.468;13.342;2023-02-02T02:38:29;27.17;;;3.77;;
4961;SDS011;2496;52.468;13.342;2023-02-02T02:41:04;10.50;;;2.60;;
4961;SDS011;2496;52.468;13.342;2023-02-02T02:43:37;15.67;;;2.80;;
4961;SDS011;2496;52.468;13.342;2023-02-02T02:46:07;12.87;;;2.90;;
4961;SDS011;2496;52.468;13.342;2023-02-02T02:48:37;21.67;;;4.07;;
4961;SDS011;2496;52.468;13.342;2023-02-02T02:51:05;12.50;;;2.87;;
4961;SDS011;2496;52.468;13.342;2023-02-02T02:53:33;16.83;;;2.67;;
4961;SDS011;2496;52.468;13.342;2023-02-02T02:56:12;14.03;;;2.23;;
4961;SDS011;2496;52.468;13.342;2023-02-02T02:58:52;13.33;;;2.83;;
4961;SDS011;2496;52.468;13.342;2023-02-02T03:01:27;9.83;;;2.50;;
4961;SDS011;2496;52.468;13.342;2023-02-02T03:04:05;9.37;;;2.50;;
4961;SDS011;2496;52.468;13.342;2023-02-02T03:06:37;16.30;;;2.43;;
4961;SDS011;2496;52.468;13.342;2023-02-02T03:09:09;15.70;;;2.67;;
4961;SDS011;2496;52.468;13.342;2023-02-02T03:11:40;12.80;;;2.27;;
4961;SDS011;2496;52.468;13.342;2023-02-02T03:14:07;12.13;;;2.17;;
4961;SDS011;2496;52.468;13.342;2023-02-02T03:16:35;12.40;;;3.40;;
4961;SDS011;2496;52.468;13.342;2023-02-02T03:19:03;13.40;;;2.80;;
4961;SDS011;2496;52.468;13.342;2023-02-02T03:21:31;8.23;;;1.90;;
4961;SDS011;2496;52.468;13.342;2023-02-02T03:23:59;8.10;;;1.60;;
4961;SDS011;2496;52.468;13.342;2023-02-02T03:26:26;7.93;;;2.27;;
4961;SDS011;2496;52.468;13.342;2023-02-02T03:28:54;8.77;;;1.97;;
4961;SDS011;2496;52.468;13.342;2023-02-02T03:31:22;12.03;;;3.30;;
4961;SDS011;2496;52.468;13.342;2023-02-02T03:33:51;8.80;;;3.23;;
4961;SDS011;2496;52.468;13.342;2023-02-02T03:36:20;8.40;;;2.70;;
4961;SDS011;2496;52.468;13.342;2023-02-02T03:38:47;12.60;;;2.63;;
4961;SDS011;2496;52.468;13.342;2023-02-02T03:41:14;2.83;;;1.60;;
4961;SDS011;2496;52.468;13.342;2023-02-02T03:43:41;15.60;;;2.33;;
4961;SDS011;2496;52.468;13.342;2023-02-02T03:46:08;10.13;;;2.63;;
4961;SDS011;2496;52.468;13.342;2023-02-02T03:48:35;12.27;;;2.30;;
4961;SDS011;2496;52.468;13.342;2023-02-02T03:51:06;7.20;;;2.00;;
4961;SDS011;2496;52.468;13.342;2023-02-02T03:53:37;7.50;;;2.00;;
4961;SDS011;2496;52.468;13.342;2023-02-02T03:56:04;11.83;;;3.40;;
4961;SDS011;2496;52.468;13.342;2023-02-02T03:58:32;9.73;;;2.47;;
4961;SDS011;2496;52.468;13.342;2023-02-02T04:01:01;4.73;;;1.77;;
4961;SDS011;2496;52.468;13.342;2023-02-02T04:03:29;13.53;;;2.40;;
4961;SDS011;2496;52.468;13.342;2023-02-02T04:05:56;2.70;;;1.80;;
4961;SDS011;2496;52.468;13.342;2023-02-02T04:08:23;3.23;;;1.80;;
4961;SDS011;2496;52.468;13.342;2023-02-02T04:10:51;13.70;;;3.40;;
4961;SDS011;2496;52.468;13.342;2023-02-02T04:13:18;9.67;;;2.00;;
4961;SDS011;2496;52.468;13.342;2023-02-02T04:15:45;6.83;;;1.50;;
4961;SDS011;2496;52.468;13.342;2023-02-02T04:18:12;11.90;;;3.00;;
4961;SDS011;2496;52.468;13.342;2023-02-02T04:20:39;5.70;;;1.67;;
4961;SDS011;2496;52.468;13.342;2023-02-02T04:23:06;4.83;;;1.80;;
4961;SDS011;2496;52.468;13.342;2023-02-02T04:25:33;9.30;;;2.20;;
4961;SDS011;2496;52.468;13.342;2023-02-02T04:28:04;19.13;;;2.90;;
4961;SDS011;2496;52.468;13.342;2023-02-02T04:30:31;15.53;;;2.13;;
4961;SDS011;2496;52.468;13.342;2023-02-02T04:32:58;14.63;;;2.53;;
4961;SDS011;2496;52.468;13.342;2023-02-02T04:35:25;3.90;;;1.90;;
4961;SDS011;2496;52.468;13.342;2023-02-02T04:37:52;8.10;;;2.47;;
4961;SDS011;2496;52.468;13.342;2023-02-02T04:40:20;5.67;;;2.33;;
4961;SDS011;2496;52.468;13.342;2023-02-02T04:42:47;6.77;;;2.27;;
4961;SDS011;2496;52.468;13.342;2023-02-02T04:45:16;14.33;;;1.60;;
4961;SDS011;2496;52.468;13.342;2023-02-02T04:47:43;7.77;;;2.17;;
4961;SDS011;2496;52.468;13.342;2023-02-02T04:50:10;7.57;;;2.40;;
4961;SDS011;2496;52.468;13.342;2023-02-02T04:52:37;12.60;;;2.00;;
4961;SDS011;2496;52.468;13.342;2023-02-02T04:55:04;8.87;;;3.10;;
4961;SDS011;2496;52.468;13.342;2023-02-02T04:57:31;3.93;;;2.10;;
4961;SDS011;2496;52.468;13.342;2023-02-02T04:59:58;6.13;;;1.90;;
4961;SDS011;2496;52.468;13.342;2023-02-02T05:02:27;5.00;;;1.67;;
4961;SDS011;2496;52.468;13.342;2023-02-02T05:04:54;8.43;;;2.23;;
4961;SDS011;2496;52.468;13.342;2023-02-02T05:07:21;7.70;;;2.63;;
4961;SDS011;2496;52.468;13.342;2023-02-02T05:09:48;8.13;;;2.40;;
4961;SDS011;2496;52.468;13.342;2023-02-02T05:12:15;10.30;;;2.30;;
4961;SDS011;2496;52.468;13.342;2023-02-02T05:14:42;10.07;;;1.70;;
4961;SDS011;2496;52.468;13.342;2023-02-02T05:17:09;7.70;;;2.03;;
4961;SDS011;2496;52.468;13.342;2023-02-02T05:19:37;7.27;;;2.00;;
4961;SDS011;2496;52.468;13.342;2023-02-02T05:22:05;11.47;;;1.50;;
4961;SDS011;2496;52.468;13.342;2023-02-02T05:24:32;10.00;;;2.07;;
4961;SDS011;2496;52.468;13.342;2023-02-02T05:26:59;10.63;;;2.17;;
4961;SDS011;2496;52.468;13.342;2023-02-02T05:29:27;6.30;;;2.00;;
4961;SDS011;2496;52.468;13.342;2023-02-02T05:31:55;9.27;;;1.70;;
4961;SDS011;2496;52.468;13.342;2023-02-02T05:34:23;14.23;;;2.53;;
4961;SDS011;2496;52.468;13.342;2023-02-02T05:36:53;11.63;;;2.57;;
4961;SDS011;2496;52.468;13.342;2023-02-02T05:39:20;16.50;;;2.80;;
4961;SDS011;2496;52.468;13.342;2023-02-02T05:41:47;8.90;;;2.10;;
4961;SDS011;2496;52.468;13.342;2023-02-02T05:44:15;25.83;;;2.93;;
4961;SDS011;2496;52.468;13.342;2023-02-02T05:46:42;8.50;;;2.70;;
4961;SDS011;2496;52.468;13.342;2023-02-02T05:49:10;16.70;;;2.90;;
4961;SDS011;2496;52.468;13.342;2023-02-02T05:51:39;6.43;;;1.93;;
4961;SDS011;2496;52.468;13.342;2023-02-02T05:54:11;8.47;;;2.43;;
4961;SDS011;2496;52.468;13.342;2023-02-02T05:56:43;8.63;;;2.80;;
4961;SDS011;2496;52.468;13.342;2023-02-02T05:59:10;8.27;;;1.77;;
4961;SDS011;2496;52.468;13.342;2023-02-02T06:01:37;11.33;;;2.00;;
4961;SDS011;2496;52.468;13.342;2023-02-02T06:04:04;18.33;;;3.13;;
4961;SDS011;2496;52.468;13.342;2023-02-02T06:06:32;7.87;;;2.30;;
4961;SDS011;2496;52.468;13.342;2023-02-02T06:09:02;6.67;;;1.80;;
4961;SDS011;2496;52.468;13.342;2023-02-02T06:11:31;10.93;;;2.67;;
4961;SDS011;2496;52.468;13.342;2023-02-02T06:13:59;13.23;;;2.80;;
4961;SDS011;2496;52.468;13.342;2023-02-02T06:16:26;8.13;;;1.93;;
4961;SDS011;2496;52.468;13.342;2023-02-02T06:18:53;9.50;;;2.23;;
4961;SDS011;2496;52.468;13.342;2023-02-02T06:21:21;6.60;;;2.40;;
4961;SDS011;2496;52.468;13.342;2023-02-02T06:23:48;9.60;;;2.60;;
4961;SDS011;2496;52.468;13.342;2023-02-02T06:26:16;9.80;;;2.90;;
4961;SDS011;2496;52.468;13.342;2023-02-02T06:28:48;11.57;;;2.50;;
4961;SDS011;2496;52.468;13.342;2023-02-02T06:31:17;11.73;;;2.90;;
4961;SDS011;2496;52.468;13.342;2023-02-02T06:33:44;8.63;;;2.20;;
4961;SDS011;2496;52.468;13.342;2023-02-02T06:36:12;7.40;;;1.70;;
4961;SDS011;2496;52.468;13.342;2023-02-02T06:38:39;5.43;;;2.13;;
4961;SDS011;2496;52.468;13.342;2023-02-02T06:41:07;9.43;;;2.37;;
4961;SDS011;2496;52.468;13.342;2023-02-02T06:43:34;6.90;;;2.27;;
4961;SDS011;2496;52.468;13.342;2023-02-02T06:46:03;8.63;;;1.87;;
4961;SDS011;2496;52.468;13.342;2023-02-02T06:48:30;7.80;;;2.13;;
4961;SDS011;2496;52.468;13.342;2023-02-02T06:50:57;12.57;;;3.23;;
4961;SDS011;2496;52.468;13.342;2023-02-02T06:53:25;10.13;;;2.40;;
4961;SDS011;2496;52.468;13.342;2023-02-02T06:55:53;9.63;;;1.90;;
4961;SDS011;2496;52.468;13.342;2023-02-02T06:58:21;4.53;;;1.83;;
4961;SDS011;2496;52.468;13.342;2023-02-02T07:00:48;10.00;;;2.30;;
4961;SDS011;2496;52.468;13.342;2023-02-02T07:03:17;6.60;;;3.20;;
4961;SDS011;2496;52.468;13.342;2023-02-02T07:05:47;9.33;;;2.37;;
4961;SDS011;2496;52.468;13.342;2023-02-02T07:08:14;14.60;;;2.70;;
4961;SDS011;2496;52.468;13.342;2023-02-02T07:10:41;12.70;;;2.70;;
4961;SDS011;2496;52.468;13.342;2023-02-02T07:13:08;8.57;;;2.53;;
4961;SDS011;2496;52.468;13.342;2023-02-02T07:15:37;6.30;;;2.10;;
4961;SDS011;2496;52.468;13.342;2023-02-02T07:18:04;10.47;;;2.60;;
4961;SDS011;2496;52.468;13.342;2023-02-02T07:20:33;15.70;;;4.00;;
4961;SDS011;2496;52.468;13.342;2023-02-02T07:23:01;10.10;;;1.90;;
4961;SDS011;2496;52.468;13.342;2023-02-02T07:25:28;14.33;;;2.83;;
4961;SDS011;2496;52.468;13.342;2023-02-02T07:27:55;13.20;;;1.87;;
4961;SDS011;2496;52.468;13.342;2023-02-02T07:30:22;10.80;;;2.40;;
4961;SDS011;2496;52.468;13.342;2023-02-02T07:32:53;5.70;;;2.40;;
4961;SDS011;2496;52.468;13.342;2023-02-02T07:35:22;11.60;;;2.47;;
4961;SDS011;2496;52.468;13.342;2023-02-02T07:37:51;24.10;;;2.63;;
4961;SDS011;2496;52.468;13.342;2023-02-02T07:40:19;13.47;;;2.77;;
4961;SDS011;2496;52.468;13.342;2023-02-02T07:42:46;16.27;;;3.67;;
4961;SDS011;2496;52.468;13.342;2023-02-02T07:45:13;13.13;;;3.10;;
4961;SDS011;2496;52.468;13.342;2023-02-02T07:47:40;15.13;;;3.50;;
4961;SDS011;2496;52.468;13.342;2023-02-02T07:50:08;12.17;;;2.70;;
4961;SDS011;2496;52.468;13.342;2023-02-02T07:52:35;27.77;;;4.93;;
4961;SDS011;2496;52.468;13.342;2023-02-02T07:55:04;16.90;;;5.73;;
4961;SDS011;2496;52.468;13.342;2023-02-02T07:57:32;23.80;;;11.50;;
4961;SDS011;2496;52.468;13.342;2023-02-02T07:59:59;26.23;;;13.00;;
4961;SDS011;2496;52.468;13.342;2023-02-02T08:02:26;27.67;;;5.67;;
4961;SDS011;2496;52.468;13.342;2023-02-02T08:04:53;41.93;;;15.43;;
4961;SDS011;2496;52.468;13.342;2023-02-02T08:07:20;24.30;;;10.17;;
4961;SDS011;2496;52.468;13.342;2023-02-02T08:09:48;15.70;;;4.60;;
4961;SDS011;2496;52.468;13.342;2023-02-02T08:12:17;11.43;;;3.70;;
4961;SDS011;2496;52.468;13.342;2023-02-02T08:14:45;11.53;;;3.73;;
4961;SDS011;2496;52.468;13.342;2023-02-02T08:17:12;13.80;;;2.60;;
4961;SDS011;2496;52.468;13.342;2023-02-02T08:19:39;8.60;;;2.20;;
4961;SDS011;2496;52.468;13.342;2023-02-02T08:22:06;7.17;;;3.00;;
4961;SDS011;2496;52.468;13.342;2023-02-02T08:24:33;17.50;;;3.10;;
4961;SDS011;2496;52.468;13.342;2023-02-02T08:27:04;10.37;;;2.60;;
4961;SDS011;2496;52.468;13.342;2023-02-02T08:29:33;7.67;;;3.70;;
4961;SDS011;2496;52.468;13.342;2023-02-02T08:32:01;12.93;;;2.67;;
4961;SDS011;2496;52.468;13.342;2023-02-02T08:34:29;11.30;;;2.50;;
4961;SDS011;2496;52.468;13.342;2023-02-02T08:36:58;23.97;;;4.83;;
4961;SDS011;2496;52.468;13.342;2023-02-02T08:39:25;21.07;;;3.30;;
4961;SDS011;2496;52.468;13.342;2023-02-02T08:41:53;19.60;;;3.27;;
4961;SDS011;2496;52.468;13.342;2023-02-02T08:44:20;10.00;;;2.80;;
4961;SDS011;2496;52.468;13.342;2023-02-02T08:46:49;14.23;;;2.27;;
4961;SDS011;2496;52.468;13.342;2023-02-02T08:49:16;10.23;;;2.93;;
4961;SDS011;2496;52.468;13.342;2023-02-02T08:51:44;12.07;;;2.53;;
4961;SDS011;2496;52.468;13.342;2023-02-02T08:54:10;11.97;;;2.90;;
4961;SDS011;2496;52.468;13.342;2023-02-02T08:56:37;11.87;;;3.10;;
4961;SDS011;2496;52.468;13.342;2023-02-02T08:59:04;7.47;;;1.90;;
4961;SDS011;2496;52.468;13.342;2023-02-02T09:01:32;12.27;;;2.73;;
4961;SDS011;2496;52.468;13.342;2023-02-02T09:04:02;10.80;;;2.80;;
4961;SDS011;2496;52.468;13.342;2023-02-02T09:06:30;14.53;;;1.90;;
4961;SDS011;2496;52.468;13.342;2023-02-02T09:08:58;9.70;;;2.40;;
4961;SDS011;2496;52.468;13.342;2023-02-02T09:11:26;12.47;;;2.73;;
4961;SDS011;2496;52.468;13.342;2023-02-02T09:13:54;10.33;;;1.97;;
4961;SDS011;2496;52.468;13.342;2023-02-02T09:16:22;11.10;;;2.47;;
4961;SDS011;2496;52.468;13.342;2023-02-02T09:18:51;7.20;;;2.47;;
4961;SDS011;2496;52.468;13.342;2023-02-02T09:21:20;7.27;;;2.43;;
4961;SDS011;2496;52.468;13.342;2023-02-02T09:23:49;7.90;;;2.33;;
4961;SDS011;2496;52.468;13.342;2023-02-02T09:26:18;13.00;;;2.77;;
4961;SDS011;2496;52.468;13.342;2023-02-02T09:28:47;7.37;;;2.27;;
4961;SDS011;2496;52.468;13.342;2023-02-02T09:31:16;9.93;;;2.80;;
4961;SDS011;2496;52.468;13.342;2023-02-02T09:33:43;10.23;;;3.10;;
4961;SDS011;2496;52.468;13.342;2023-02-02T09:36:11;10.23;;;3.70;;
4961;SDS011;2496;52.468;13.342;2023-02-02T09:38:41;20.07;;;2.50;;
4961;SDS011;2496;52.468;13.342;2023-02-02T09:44:21;5.30;;;2.20;;
4961;SDS011;2496;52.468;13.342;2023-02-02T09:46:59;12.43;;;2.40;;
4961;SDS011;2496;52.468;13.342;2023-02-02T09:49:36;11.97;;;2.43;;
4961;SDS011;2496;52.468;13.342;2023-02-02T09:52:12;10.53;;;2.50;;
4961;SDS011;2496;52.468;13.342;2023-02-02T09:54:45;9.07;;;2.33;;
4961;SDS011;2496;52.468;13.342;2023-02-02T09:57:16;11.60;;;2.10;;
4961;SDS011;2496;52.468;13.342;2023-02-02T09:59:48;6.57;;;2.10;;
4961;SDS011;2496;52.468;13.342;2023-02-02T10:02:16;8.47;;;2.23;;
4961;SDS011;2496;52.468;13.342;2023-02-02T10:04:47;11.30;;;1.93;;
4961;SDS011;2496;52.468;13.342;2023-02-02T10:07:18;4.97;;;1.73;;
4961;SDS011;2496;52.468;13.342;2023-02-02T10:09:49;5.93;;;1.93;;
4961;SDS011;2496;52.468;13.342;2023-02-02T10:12:25;9.80;;;2.20;;
4961;SDS011;2496;52.468;13.342;2023-02-02T10:14:58;13.67;;;2.30;;
4961;SDS011;2496;52.468;13.342;2023-02-02T10:17:38;13.13;;;2.20;;
4961;SDS011;2496;52.468;13.342;2023-02-02T10:20:24;9.50;;;2.30;;
4961;SDS011;2496;52.468;13.342;2023-02-02T10:23:05;19.20;;;2.50;;
4961;SDS011;2496;52.468;13.342;2023-02-02T10:25:53;9.40;;;2.37;;
4961;SDS011;2496;52.468;13.342;2023-02-02T10:28:25;4.40;;;1.90;;
4961;SDS011;2496;52.468;13.342;2023-02-02T10:31:02;11.03;;;2.20;;
4961;SDS011;2496;52.468;13.342;2023-02-02T10:33:32;9.70;;;1.67;;
4961;SDS011;2496;52.468;13.342;2023-02-02T10:36:05;12.10;;;1.90;;
4961;SDS011;2496;52.468;13.342;2023-02-02T10:38:41;8.60;;;3.03;;
4961;SDS011;2496;52.468;13.342;2023-02-02T10:41:16;12.07;;;1.90;;
4961;SDS011;2496;52.468;13.342;2023-02-02T10:43:54;8.30;;;2.67;;
4961;SDS011;2496;52.468;13.342;2023-02-02T10:46:31;11.07;;;2.10;;
4961;SDS011;2496;52.468;13.342;2023-02-02T10:49:09;8.53;;;1.90;;
4961;SDS011;2496;52.468;13.342;2023-02-02T10:51:43;8.03;;;2.83;;
4961;SDS011;2496;52.468;13.342;2023-02-02T10:54:30;11.30;;;2.80;;
4961;SDS011;2496;52.468;13.342;2023-02-02T10:57:07;9.60;;;2.37;;
4961;SDS011;2496;52.468;13.342;2023-02-02T10:59:40;13.50;;;2.60;;
4961;SDS011;2496;52.468;13.342;2023-02-02T11:02:15;9.63;;;2.20;;
4961;SDS011;2496;52.468;13.342;2023-02-02T11:04:42;12.00;;;3.20;;
4961;SDS011;2496;52.468;13.342;2023-02-02T11:07:26;6.83;;;1.97;;
4961;SDS011;2496;52.468;13.342;2023-02-02T11:09:53;4.23;;;2.13;;
4961;SDS011;2496;52.468;13.342;2023-02-02T11:12:24;6.27;;;2.20;;
4961;SDS011;2496;52.468;13.342;2023-02-02T11:14:58;11.93;;;3.50;;
4961;SDS011;2496;52.468;13.342;2023-02-02T11:17:29;7.27;;;1.97;;
4961;SDS011;2496;52.468;13.342;2023-02-02T11:22:29;10.13;;;3.10;;
4961;SDS011;2496;52.468;13.342;2023-02-02T11:25:00;10.63;;;3.40;;
4961;SDS011;2496;52.468;13.342;2023-02-02T11:27:32;7.30;;;2.33;;
4961;SDS011;2496;52.468;13.342;2023-02-02T11:30:11;7.20;;;2.17;;
4961;SDS011;2496;52.468;13.342;2023-02-02T11:32:46;7.00;;;2.73;;
4961;SDS011;2496;52.468;13.342;2023-02-02T11:35:16;7.87;;;2.60;;
4961;SDS011;2496;52.468;13.342;2023-02-02T11:37:53;8.80;;;2.30;;
4961;SDS011;2496;52.468;13.342;2023-02-02T11:40:32;12.27;;;2.13;;
4961;SDS011;2496;52.468;13.342;2023-02-02T11:43:03;14.80;;;2.43;;
4961;SDS011;2496;52.468;13.342;2023-02-02T11:45:33;4.57;;;1.77;;
4961;SDS011;2496;52.468;13.342;2023-02-02T11:48:04;7.70;;;2.13;;
4961;SDS011;2496;52.468;13.342;2023-02-02T11:50:35;10.10;;;2.97;;
4961;SDS011;2496;52.468;13.342;2023-02-02T11:53:02;7.33;;;1.80;;
4961;SDS011;2496;52.468;13.342;2023-02-02T11:55:30;9.43;;;1.80;;
4961;SDS011;2496;52.468;13.342;2023-02-02T11:58:18;10.83;;;2.07;;
4961;SDS011;2496;52.468;13.342;2023-02-02T12:00:49;10.70;;;2.73;;
4961;SDS011;2496;52.468;13.342;2023-02-02T12:03:22;6.80;;;2.43;;
4961;SDS011;2496;52.468;13.342;2023-02-02T12:05:55;7.67;;;2.00;;
4961;SDS011;2496;52.468;13.342;2023-02-02T12:08:22;11.17;;;2.07;;
4961;SDS011;2496;52.468;13.342;2023-02-02T12:10:52;6.60;;;1.50;;
4961;SDS011;2496;52.468;13.342;2023-02-02T12:13:36;5.33;;;2.60;;
4961;SDS011;2496;52.468;13.342;2023-02-02T12:16:20;7.33;;;1.87;;
4961;SDS011;2496;52.468;13.342;2023-02-02T12:19:03;32.37;;;3.07;;
4961;SDS011;2496;52.468;13.342;2023-02-02T12:21:46;5.40;;;1.53;;
4961;SDS011;2496;52.468;13.342;2023-02-02T12:24:25;7.30;;;1.80;;
4961;SDS011;2496;52.468;13.342;2023-02-02T12:26:56;7.97;;;2.33;;
4961;SDS011;2496;52.468;13.342;2023-02-02T12:29:40;2.33;;;1.30;;
4961;SDS011;2496;52.468;13.342;2023-02-02T12:32:23;5.47;;;1.70;;
4961;SDS011;2496;52.468;13.342;2023-02-02T12:35:00;4.80;;;1.80;;
4961;SDS011;2496;52.468;13.342;2023-02-02T12:37:47;8.33;;;1.90;;
4961;SDS011;2496;52.468;13.342;2023-02-02T12:40:28;3.80;;;1.40;;
4961;SDS011;2496;52.468;13.342;2023-02-02T12:43:10;11.33;;;1.93;;
4961;SDS011;2496;52.468;13.342;2023-02-02T12:45:53;4.33;;;1.80;;
4961;SDS011;2496;52.468;13.342;2023-02-02T12:48:37;3.40;;;1.50;;
4961;SDS011;2496;52.468;13.342;2023-02-02T12:51:22;7.53;;;1.63;;
4961;SDS011;2496;52.468;13.342;2023-02-02T12:54:14;3.13;;;1.53;;
4961;SDS011;2496;52.468;13.342;2023-02-02T12:56:52;8.60;;;1.80;;
4961;SDS011;2496;52.468;13.342;2023-02-02T12:59:28;9.50;;;1.90;;
4961;SDS011;2496;52.468;13.342;2023-02-02T13:02:16;6.80;;;1.50;;
4961;SDS011;2496;52.468;13.342;2023-02-02T13:04:53;8.30;;;2.40;;
4961;SDS011;2496;52.468;13.342;2023-02-02T13:07:35;19.13;;;2.70;;
4961;SDS011;2496;52.468;13.342;2023-02-02T13:10:15;10.60;;;2.23;;
4961;SDS011;2496;52.468;13.342;2023-02-02T13:12:50;8.93;;;1.67;;
4961;SDS011;2496;52.468;13.342;2023-02-02T13:15:20;9.50;;;1.87;;
4961;SDS011;2496;52.468;13.342;2023-02-02T13:17:51;8.20;;;1.90;;
4961;SDS011;2496;52.468;13.342;2023-02-02T13:20:22;3.27;;;2.03;;
4961;SDS011;2496;52.468;13.342;2023-02-02T13:22:58;12.70;;;2.60;;
4961;SDS011;2496;52.468;13.342;2023-02-02T13:25:29;9.00;;;2.70;;
4961;SDS011;2496;52.468;13.342;2023-02-02T13:28:02;10.20;;;2.57;;
4961;SDS011;2496;52.468;13.342;2023-02-02T13:30:33;7.03;;;2.17;;
4961;SDS011;2496;52.468;13.342;2023-02-02T13:33:06;4.93;;;2.00;;
4961;SDS011;2496;52.468;13.342;2023-02-02T13:35:41;3.30;;;2.03;;
4961;SDS011;2496;52.468;13.342;2023-02-02T13:38:17;16.20;;;3.30;;
4961;SDS011;2496;52.468;13.342;2023-02-02T13:40:47;19.50;;;2.20;;
4961;SDS011;2496;52.468;13.342;2023-02-02T13:43:19;8.23;;;2.30;;
4961;SDS011;2496;52.468;13.342;2023-02-02T13:45:59;9.27;;;1.83;;
4961;SDS011;2496;52.468;13.342;2023-02-02T13:48:34;13.57;;;2.37;;
4961;SDS011;2496;52.468;13.342;2023-02-02T13:51:19;8.30;;;1.90;;
4961;SDS011;2496;52.468;13.342;2023-02-02T13:57:11;5.50;;;2.10;;
4961;SDS011;2496;52.468;13.342;2023-02-02T13:59:47;7.13;;;1.87;;
4961;SDS011;2496;52.468;13.342;2023-02-02T14:02:21;10.67;;;2.43;;
4961;SDS011;2496;52.468;13.342;2023-02-02T14:04:57;3.73;;;1.40;;
4961;SDS011;2496;52.468;13.342;2023-02-02T14:07:27;5.80;;;2.17;;
4961;SDS011;2496;52.468;13.342;2023-02-02T14:10:05;2.43;;;1.47;;
4961;SDS011;2496;52.468;13.342;2023-02-02T14:12:45;8.03;;;1.77;;
4961;SDS011;2496;52.468;13.342;2023-02-02T14:15:12;5.70;;;2.60;;
4961;SDS011;2496;52.468;13.342;2023-02-02T14:17:50;5.03;;;2.27;;
4961;SDS011;2496;52.468;13.342;2023-02-02T14:20:40;7.93;;;1.70;;
4961;SDS011;2496;52.468;13.342;2023-02-02T14:26:18;4.70;;;1.50;;
4961;SDS011;2496;52.468;13.342;2023-02-02T14:32:01;6.07;;;2.43;;
4961;SDS011;2496;52.468;13.342;2023-02-02T14:34:34;8.30;;;1.90;;
4961;SDS011;2496;52.468;13.342;2023-02-02T14:37:18;4.90;;;1.83;;
4961;SDS011;2496;52.468;13.342;2023-02-02T14:40:31;11.33;;;2.30;;
4961;SDS011;2496;52.468;13.342;2023-02-02T14:43:16;3.47;;;1.70;;
4961;SDS011;2496;52.468;13.342;2023-02-02T14:49:09;11.43;;;1.70;;
4961;SDS011;2496;52.468;13.342;2023-02-02T14:51:49;7.47;;;1.60;;
4961;SDS011;2496;52.468;13.342;2023-02-02T14:54:24;3.43;;;1.87;;
4961;SDS011;2496;52.468;13.342;2023-02-02T14:56:56;8.20;;;3.40;;
4961;SDS011;2496;52.468;13.342;2023-02-02T14:59:26;10.10;;;2.10;;
4961;SDS011;2496;52.468;13.342;2023-02-02T15:02:11;8.73;;;2.40;;
4961;SDS011;2496;52.468;13.342;2023-02-02T15:04:42;10.13;;;1.97;;
4961;SDS011;2496;52.468;13.342;2023-02-02T15:13:21;5.07;;;1.50;;
4961;SDS011;2496;52.468;13.342;2023-02-02T15:15:51;4.20;;;1.70;;
4961;SDS011;2496;52.468;13.342;2023-02-02T15:18:29;6.70;;;1.83;;
4961;SDS011;2496;52.468;13.342;2023-02-02T15:21:00;5.07;;;1.70;;
4961;SDS011;2496;52.468;13.342;2023-02-02T15:23:32;3.17;;;1.37;;
4961;SDS011;2496;52.468;13.342;2023-02-02T15:26:03;4.70;;;1.77;;
4961;SDS011;2496;52.468;13.342;2023-02-02T15:28:37;7.63;;;1.53;;
4961;SDS011;2496;52.468;13.342;2023-02-02T15:31:11;5.33;;;1.60;;
4961;SDS011;2496;52.468;13.342;2023-02-02T15:33:51;4.60;;;1.57;;
4961;SDS011;2496;52.468;13.342;2023-02-02T15:36:24;3.57;;;1.70;;
4961;SDS011;2496;52.468;13.342;2023-02-02T15:38:52;3.20;;;1.00;;
4961;SDS011;2496;52.468;13.342;2023-02-02T15:41:22;5.60;;;1.90;;
4961;SDS011;2496;52.468;13.342;2023-02-02T15:43:53;8.90;;;1.90;;
4961;SDS011;2496;52.468;13.342;2023-02-02T15:46:20;8.80;;;2.23;;
4961;SDS011;2496;52.468;13.342;2023-02-02T15:51:41;4.87;;;2.00;;